Time;durP1;ratioP1;P1;durP2;ratioP2;P2;SDS_P1;SDS_P2;PMS_P1;PMS_P2;Temp;Humidity;BMP_temperature;BMP_pressure;BME280_temperature;BME280_humidity;BME280_pressure;Samples;Min_cycle;Max_cycle;Signal;HPM_P1;HPM_P2
2021/09/20 00:01:44;;;;;;;8.50;1.55;;;13.50;82.30;;;;;;5037029;28;20428;-73
2021/09/20 00:04:09;;;;;;;8.43;1.70;;;13.50;82.90;;;;;;5036542;28;20022;-74
2021/09/20 00:06:35;;;;;;;5.13;1.70;;;13.50;83.20;;;;;;5037051;28;20029;-74
2021/09/20 00:09:01;;;;;;;11.23;2.17;;;13.50;81.30;;;;;;5036677;28;20025;-74
2021/09/20 00:11:27;;;;;;;7.32;1.35;;;13.40;80.90;;;;;;5037080;28;20104;-74
2021/09/20 00:13:53;;;;;;;11.45;2.03;;;13.40;81.30;;;;;;5036830;28;20018;-74
2021/09/20 00:16:18;;;;;;;6.93;1.42;;;13.40;81.10;;;;;;5036835;28;20030;-74
2021/09/20 00:18:44;;;;;;;10.05;1.65;;;13.40;82.10;;;;;;5036727;28;20029;-74
2021/09/20 00:21:10;;;;;;;8.93;1.50;;;13.40;81.70;;;;;;5036984;28;20082;-74
2021/09/20 00:23:36;;;;;;;9.82;1.73;;;13.30;82.80;;;;;;5035052;28;20022;-74
2021/09/20 00:26:02;;;;;;;7.28;1.90;;;13.40;83.00;;;;;;5036225;28;20514;-74
2021/09/20 00:28:28;;;;;;;5.72;1.50;;;13.30;83.90;;;;;;5039028;28;20029;-74
2021/09/20 00:30:54;;;;;;;10.93;1.95;;;13.30;83.90;;;;;;5039999;28;20021;-74
2021/09/20 00:33:20;;;;;;;11.63;1.63;;;13.30;82.60;;;;;;5040299;28;20065;-74
2021/09/20 00:35:46;;;;;;;4.93;1.45;;;13.30;82.20;;;;;;5038788;28;20519;-75
2021/09/20 00:38:12;;;;;;;9.30;1.70;;;13.20;81.50;;;;;;5040162;28;20031;-74
2021/09/20 00:40:38;;;;;;;5.80;1.92;;;13.20;82.30;;;;;;5040035;28;20036;-75
2021/09/20 00:43:04;;;;;;;13.80;2.10;;;13.20;82.50;;;;;;5040044;28;20025;-74
2021/09/20 00:45:31;;;;;;;8.48;2.20;;;13.20;83.20;;;;;;5040102;28;20510;-74
2021/09/20 00:47:57;;;;;;;12.98;2.00;;;13.20;82.90;;;;;;5039740;28;20033;-74
2021/09/20 00:50:23;;;;;;;8.32;1.70;;;13.20;83.00;;;;;;5039987;28;20021;-75
2021/09/20 00:52:49;;;;;;;6.38;1.83;;;13.10;82.50;;;;;;5039860;28;20381;-74
2021/09/20 00:55:15;;;;;;;8.27;1.58;;;13.10;82.70;;;;;;5039648;28;20032;-74
2021/09/20 00:57:44;;;;;;;8.38;2.33;;;13.10;82.90;;;;;;5038469;28;20053;-74
2021/09/20 01:00:10;;;;;;;6.35;1.80;;;13.00;83.80;;;;;;5039646;28;20021;-74
2021/09/20 01:02:37;;;;;;;10.27;1.95;;;13.10;82.90;;;;;;5038456;28;20064;-74
2021/09/20 01:05:04;;;;;;;7.88;1.50;;;13.00;82.40;;;;;;5038121;28;20506;-74
2021/09/20 01:07:30;;;;;;;11.98;1.88;;;13.00;83.70;;;;;;5039420;28;20021;-74
2021/09/20 01:09:56;;;;;;;12.48;1.90;;;13.00;84.30;;;;;;5038976;28;20025;-74
2021/09/20 01:12:21;;;;;;;5.63;1.63;;;13.00;84.70;;;;;;5039545;28;20603;-74
2021/09/20 01:14:47;;;;;;;5.72;1.73;;;13.00;84.40;;;;;;5038197;28;20155;-74
2021/09/20 01:17:13;;;;;;;9.65;2.15;;;12.90;84.90;;;;;;5039556;28;20458;-74
2021/09/20 01:19:39;;;;;;;10.68;1.70;;;13.00;85.10;;;;;;5039351;28;20057;-74
2021/09/20 01:22:12;;;;;;;10.43;1.83;;;12.90;84.60;;;;;;5039202;28;20087;-75
2021/09/20 01:24:38;;;;;;;10.32;2.55;;;12.90;84.80;;;;;;5039286;28;20104;-74
2021/09/20 01:27:05;;;;;;;8.18;1.40;;;12.90;85.30;;;;;;5039027;28;20064;-74
2021/09/20 01:29:31;;;;;;;10.63;1.70;;;12.90;84.00;;;;;;5039461;28;20079;-74
2021/09/20 01:31:58;;;;;;;7.78;1.70;;;12.80;84.30;;;;;;5038912;28;20108;-74
2021/09/20 01:34:25;;;;;;;10.07;2.05;;;12.80;83.10;;;;;;5038713;28;20050;-74
2021/09/20 01:36:52;;;;;;;8.95;1.80;;;12.80;81.90;;;;;;5037585;28;20124;-74
2021/09/20 01:39:24;;;;;;;6.63;1.48;;;12.70;82.70;;;;;;5038076;28;20072;-74
2021/09/20 01:41:52;;;;;;;5.68;1.45;;;12.60;81.90;;;;;;5038930;28;20099;-74
2021/09/20 01:44:18;;;;;;;7.97;1.70;;;12.60;81.20;;;;;;5037511;28;20059;-74
2021/09/20 01:46:50;;;;;;;6.22;1.42;;;12.60;80.60;;;;;;5038460;28;20104;-74
2021/09/20 01:49:16;;;;;;;5.13;1.20;;;12.50;80.60;;;;;;5038366;28;20025;-74
2021/09/20 01:51:42;;;;;;;8.48;1.70;;;12.50;79.80;;;;;;5038510;28;20021;-74
2021/09/20 01:54:09;;;;;;;8.55;2.00;;;12.50;81.40;;;;;;5038877;28;20026;-74
2021/09/20 01:56:35;;;;;;;6.00;1.20;;;12.50;81.00;;;;;;5038776;28;20423;-74
2021/09/20 01:59:02;;;;;;;4.80;1.35;;;12.50;80.70;;;;;;5038669;28;20052;-74
2021/09/20 02:01:28;;;;;;;8.07;1.58;;;12.50;81.10;;;;;;5038595;28;20079;-74
2021/09/20 02:03:55;;;;;;;7.55;1.55;;;12.50;82.20;;;;;;5038227;28;20120;-74
2021/09/20 02:06:22;;;;;;;4.60;1.45;;;12.50;82.00;;;;;;5038545;28;20032;-74
2021/09/20 02:08:49;;;;;;;9.70;2.17;;;12.50;81.80;;;;;;5037178;28;20029;-74
2021/09/20 02:11:19;;;;;;;7.13;1.67;;;12.40;81.90;;;;;;5038512;28;20014;-74
2021/09/20 02:13:45;;;;;;;11.93;1.90;;;12.50;81.70;;;;;;5038435;28;20053;-74
2021/09/20 02:16:11;;;;;;;8.68;1.63;;;12.40;82.10;;;;;;5038313;28;20503;-75
2021/09/20 02:18:39;;;;;;;7.47;2.10;;;12.40;80.90;;;;;;5036705;28;20030;-74
2021/09/20 02:21:06;;;;;;;6.43;1.40;;;12.40;82.30;;;;;;5038302;28;20445;-74
2021/09/20 02:23:32;;;;;;;9.63;1.50;;;12.40;83.40;;;;;;5036650;28;20029;-74
2021/09/20 02:26:00;;;;;;;10.27;2.20;;;12.50;84.20;;;;;;5037806;28;20113;-75
2021/09/20 02:28:26;;;;;;;11.52;3.00;;;12.40;83.80;;;;;;5037925;28;20021;-74
2021/09/20 02:30:53;;;;;;;10.30;1.85;;;12.40;84.10;;;;;;5037785;28;20018;-75
2021/09/20 02:33:19;;;;;;;6.88;2.05;;;12.40;84.80;;;;;;5036395;28;20034;-74
2021/09/20 02:35:46;;;;;;;4.85;1.45;;;12.50;85.20;;;;;;5037777;28;20045;-74
2021/09/20 02:38:12;;;;;;;6.95;1.50;;;12.40;83.80;;;;;;5038101;28;20104;-75
2021/09/20 02:40:38;;;;;;;9.23;1.90;;;12.40;84.30;;;;;;5037981;28;20357;-75
2021/09/20 02:43:04;;;;;;;7.25;1.40;;;12.40;84.30;;;;;;5038012;28;20034;-74
2021/09/20 02:45:30;;;;;;;6.53;1.60;;;12.40;84.10;;;;;;5037889;28;20049;-75
2021/09/20 02:47:56;;;;;;;9.88;1.95;;;12.40;84.90;;;;;;5037647;28;20116;-74
2021/09/20 02:50:22;;;;;;;10.02;1.80;;;12.40;85.20;;;;;;5037492;28;20026;-75
2021/09/20 02:52:48;;;;;;;7.20;1.77;;;12.40;84.60;;;;;;5037628;28;20035;-74
2021/09/20 02:55:14;;;;;;;6.22;1.83;;;12.30;84.20;;;;;;5037535;28;20067;-74
2021/09/20 02:57:40;;;;;;;7.68;1.70;;;12.40;84.90;;;;;;5037551;28;20033;-74
2021/09/20 03:00:08;;;;;;;8.65;1.60;;;12.30;84.20;;;;;;5037565;28;20423;-75
2021/09/20 03:02:34;;;;;;;6.72;1.48;;;12.30;83.30;;;;;;5034458;28;20128;-75
2021/09/20 03:05:00;;;;;;;8.35;2.33;;;12.30;83.90;;;;;;5037389;28;20067;-75
2021/09/20 03:07:26;;;;;;;5.38;1.70;;;12.30;84.00;;;;;;5037331;28;20139;-75
2021/09/20 03:09:52;;;;;;;5.88;1.42;;;12.30;84.90;;;;;;5036884;28;20021;-75
2021/09/20 03:12:17;;;;;;;8.23;1.90;;;12.30;83.90;;;;;;5037309;28;20028;-75
2021/09/20 03:14:43;;;;;;;6.35;1.60;;;12.30;84.40;;;;;;5037651;28;20067;-75
2021/09/20 03:17:09;;;;;;;6.72;1.80;;;12.30;84.70;;;;;;5037488;28;20097;-75
2021/09/20 03:19:35;;;;;;;6.97;1.75;;;12.20;83.80;;;;;;5037890;28;20553;-75
2021/09/20 03:22:02;;;;;;;8.02;1.67;;;12.20;84.70;;;;;;5037211;28;20029;-75
2021/09/20 03:24:28;;;;;;;8.65;1.73;;;12.20;84.50;;;;;;5037388;28;20534;-75
2021/09/20 03:26:54;;;;;;;6.22;1.30;;;12.20;83.80;;;;;;5037078;28;20026;-76
2021/09/20 03:29:20;;;;;;;5.57;1.58;;;12.20;83.40;;;;;;5037366;28;20021;-75
2021/09/20 03:31:47;;;;;;;7.32;2.15;;;12.10;82.60;;;;;;5037183;28;20013;-75
2021/09/20 03:34:13;;;;;;;6.20;1.48;;;12.10;82.20;;;;;;5036746;28;20033;-75
2021/09/20 03:36:40;;;;;;;8.80;1.77;;;12.10;82.30;;;;;;5037097;28;20041;-75
2021/09/20 03:39:06;;;;;;;5.65;1.50;;;12.10;81.70;;;;;;5037317;28;20061;-75
2021/09/20 03:41:32;;;;;;;7.10;1.52;;;12.00;81.50;;;;;;5037106;28;20033;-75
2021/09/20 03:43:58;;;;;;;5.03;1.80;;;12.00;82.00;;;;;;5034243;28;20026;-75
2021/09/20 03:46:24;;;;;;;9.25;1.85;;;12.00;82.30;;;;;;5036704;28;20539;-75
2021/09/20 03:48:49;;;;;;;7.30;1.63;;;12.00;82.00;;;;;;5037121;28;20431;-75
2021/09/20 03:51:15;;;;;;;4.40;1.30;;;11.90;81.30;;;;;;5036709;28;20075;-75
2021/09/20 03:53:41;;;;;;;6.18;1.95;;;11.90;81.50;;;;;;5037094;28;20029;-75
2021/09/20 03:56:07;;;;;;;10.48;1.63;;;11.90;81.50;;;;;;5036978;28;20045;-75
2021/09/20 03:58:33;;;;;;;6.38;1.60;;;11.90;81.70;;;;;;5037366;28;20415;-75
2021/09/20 04:00:59;;;;;;;4.25;1.25;;;11.90;81.70;;;;;;5036950;28;20021;-75
2021/09/20 04:03:25;;;;;;;6.85;1.42;;;11.90;81.30;;;;;;5039082;28;20484;-73
2021/09/20 04:05:51;;;;;;;6.38;1.30;;;11.90;81.70;;;;;;5040675;28;20025;-76
2021/09/20 04:08:17;;;;;;;6.55;2.00;;;11.90;81.10;;;;;;5040791;28;20035;-75
2021/09/20 04:10:43;;;;;;;6.05;1.58;;;11.80;82.00;;;;;;5040552;28;20120;-75
2021/09/20 04:13:10;;;;;;;10.23;1.30;;;11.80;81.70;;;;;;5040557;28;20495;-75
2021/09/20 04:15:38;;;;;;;6.18;1.30;;;11.80;81.00;;;;;;5040393;28;20468;-75
2021/09/20 04:18:05;;;;;;;6.88;1.77;;;11.80;81.70;;;;;;5040472;28;20389;-76
2021/09/20 04:20:31;;;;;;;5.72;1.92;;;11.80;81.00;;;;;;5039186;28;20033;-75
2021/09/20 04:22:57;;;;;;;6.25;1.25;;;11.80;80.20;;;;;;5038996;28;20116;-75
2021/09/20 04:25:23;;;;;;;6.30;1.48;;;11.70;79.90;;;;;;5039783;28;20025;-76
2021/09/20 04:27:49;;;;;;;5.50;1.08;;;11.80;79.60;;;;;;5040199;28;20060;-75
2021/09/20 04:30:15;;;;;;;5.68;1.33;;;11.70;79.90;;;;;;5038639;28;20025;-75
2021/09/20 04:32:41;;;;;;;5.60;1.48;;;11.70;81.00;;;;;;5040091;28;20024;-75
2021/09/20 04:35:07;;;;;;;5.50;1.67;;;11.70;80.70;;;;;;5040028;28;20092;-75
2021/09/20 04:37:33;;;;;;;6.72;1.60;;;11.70;79.90;;;;;;5039225;28;20057;-76
2021/09/20 04:39:59;;;;;;;8.63;1.35;;;11.70;79.40;;;;;;5040047;28;20029;-75
2021/09/20 04:42:25;;;;;;;5.40;1.08;;;11.70;79.60;;;;;;5040366;28;20025;-75
2021/09/20 04:44:52;;;;;;;3.63;1.00;;;11.70;79.70;;;;;;5039953;28;20099;-75
2021/09/20 04:47:18;;;;;;;3.65;0.85;;;11.60;79.30;;;;;;5038506;28;20033;-75
2021/09/20 04:49:44;;;;;;;5.22;1.40;;;11.60;79.40;;;;;;5040319;28;20104;-75
2021/09/20 04:52:11;;;;;;;5.97;1.48;;;11.60;79.50;;;;;;5039898;28;20373;-75
2021/09/20 04:54:36;;;;;;;7.28;1.50;;;11.60;80.50;;;;;;5039689;28;20022;-75
2021/09/20 04:57:03;;;;;;;6.35;1.55;;;11.60;81.70;;;;;;5039853;28;20026;-75
2021/09/20 04:59:29;;;;;;;4.78;1.35;;;11.60;80.50;;;;;;5039795;28;20033;-75
2021/09/20 05:01:54;;;;;;;7.55;1.50;;;11.60;80.20;;;;;;5039703;28;20053;-75
2021/09/20 05:04:20;;;;;;;4.38;1.30;;;11.60;79.80;;;;;;5038028;28;20084;-75
2021/09/20 05:06:46;;;;;;;5.80;1.90;;;11.60;80.40;;;;;;5039095;28;20028;-75
2021/09/20 05:09:12;;;;;;;7.40;1.55;;;11.60;81.60;;;;;;5028665;28;20060;-75
2021/09/20 05:11:38;;;;;;;4.90;1.38;;;11.60;80.40;;;;;;5039617;28;20022;-75
2021/09/20 05:14:05;;;;;;;5.60;1.67;;;11.60;80.00;;;;;;5037894;28;20104;-75
2021/09/20 05:16:31;;;;;;;6.43;2.10;;;11.60;82.20;;;;;;5039593;28;20388;-76
2021/09/20 05:18:57;;;;;;;8.32;1.77;;;11.60;83.00;;;;;;5039393;28;20470;-75
2021/09/20 05:21:23;;;;;;;11.38;2.78;;;11.60;81.90;;;;;;5038142;28;20017;-75
2021/09/20 05:23:50;;;;;;;5.93;1.60;;;11.60;82.60;;;;;;5039005;28;20025;-75
2021/09/20 05:26:17;;;;;;;8.80;1.50;;;11.70;84.80;;;;;;5039047;28;20635;-75
2021/09/20 05:28:43;;;;;;;10.73;1.52;;;11.70;85.20;;;;;;5039125;28;20032;-72
2021/09/20 05:31:09;;;;;;;6.32;1.67;;;11.70;86.00;;;;;;5039241;28;20018;-75
2021/09/20 05:33:35;;;;;;;9.40;2.28;;;11.80;86.80;;;;;;5038873;28;20403;-72
2021/09/20 05:36:02;;;;;;;5.53;1.45;;;11.70;85.60;;;;;;5038741;28;20037;-73
2021/09/20 05:38:28;;;;;;;6.80;1.75;;;11.70;84.70;;;;;;5037632;28;20034;-73
2021/09/20 05:40:54;;;;;;;9.70;2.25;;;11.80;85.70;;;;;;5039214;28;20109;-73
2021/09/20 05:43:19;;;;;;;11.55;1.70;;;11.80;85.70;;;;;;5036019;28;20026;-73
2021/09/20 05:45:46;;;;;;;9.57;1.83;;;11.80;86.90;;;;;;5038899;28;20575;-73
2021/09/20 05:48:11;;;;;;;5.18;1.50;;;11.80;85.40;;;;;;5038328;28;20026;-72
2021/09/20 05:50:39;;;;;;;6.68;1.70;;;11.80;84.80;;;;;;5038920;28;20025;-73
2021/09/20 05:53:04;;;;;;;8.75;2.33;;;11.80;87.20;;;;;;5037634;28;20494;-73
2021/09/20 05:55:30;;;;;;;7.10;1.60;;;11.80;87.30;;;;;;5036992;28;20407;-73
2021/09/20 05:57:56;;;;;;;10.75;2.10;;;11.80;86.40;;;;;;5038145;28;20372;-76
2021/09/20 06:00:22;;;;;;;8.93;2.15;;;11.80;87.50;;;;;;5038524;28;20033;-74
2021/09/20 06:02:48;;;;;;;9.40;1.85;;;11.80;86.70;;;;;;5038290;28;20104;-74
2021/09/20 06:05:15;;;;;;;7.63;1.88;;;11.80;86.10;;;;;;5038420;28;20048;-72
2021/09/20 06:07:42;;;;;;;13.80;2.22;;;11.80;86.80;;;;;;5036270;28;20049;-76
2021/09/20 06:10:09;;;;;;;10.05;2.10;;;11.80;87.50;;;;;;5028863;28;20057;-75
2021/09/20 06:12:35;;;;;;;10.27;1.95;;;11.80;87.30;;;;;;5038058;28;20021;-75
2021/09/20 06:15:01;;;;;;;8.45;1.85;;;11.80;87.70;;;;;;5038561;28;20030;-74
2021/09/20 06:17:27;;;;;;;9.77;2.42;;;11.80;87.50;;;;;;5037779;28;20061;-74
2021/09/20 06:19:53;;;;;;;6.65;1.58;;;11.80;86.70;;;;;;5038157;28;20079;-74
2021/09/20 06:22:19;;;;;;;10.25;1.83;;;11.90;87.00;;;;;;5037335;28;20440;-74
2021/09/20 06:24:45;;;;;;;7.38;1.92;;;11.90;87.30;;;;;;5035882;28;20033;-73
2021/09/20 06:27:11;;;;;;;8.27;2.08;;;11.90;87.00;;;;;;5037450;28;20029;-75
2021/09/20 06:29:36;;;;;;;14.43;6.82;;;11.90;87.50;;;;;;5037720;28;20025;-74
2021/09/20 06:32:03;;;;;;;19.00;11.32;;;12.00;88.00;;;;;;5035417;28;20439;-78
2021/09/20 06:34:28;;;;;;;13.23;3.90;;;11.90;86.60;;;;;;5037164;28;20492;-75
2021/09/20 06:36:54;;;;;;;8.95;2.28;;;12.00;86.60;;;;;;5037379;28;20025;-75
2021/09/20 06:39:20;;;;;;;7.90;1.73;;;12.00;87.40;;;;;;5036640;28;20213;-75
2021/09/20 06:41:46;;;;;;;6.80;2.10;;;12.00;87.40;;;;;;5036253;28;20542;-76
2021/09/20 06:44:12;;;;;;;30.27;13.63;;;12.00;87.40;;;;;;5036242;28;20553;-73
2021/09/20 06:46:38;;;;;;;16.05;6.10;;;12.00;86.90;;;;;;5035767;28;20515;-76
2021/09/20 06:49:07;;;;;;;10.63;3.97;;;12.10;87.90;;;;;;5036973;28;20029;-74
2021/09/20 06:51:33;;;;;;;9.07;2.15;;;12.00;86.10;;;;;;5037356;28;20067;-73
2021/09/20 06:53:59;;;;;;;11.20;1.83;;;12.00;86.70;;;;;;5037270;28;20075;-74
2021/09/20 06:56:25;;;;;;;6.32;1.58;;;12.00;86.00;;;;;;5036830;28;20021;-75
2021/09/20 06:58:51;;;;;;;5.60;1.70;;;12.00;85.80;;;;;;5037188;28;20021;-73
2021/09/20 07:01:17;;;;;;;10.43;2.38;;;12.00;84.90;;;;;;5037245;28;20026;-76
2021/09/20 07:03:43;;;;;;;5.78;1.60;;;12.10;85.60;;;;;;5035659;28;20045;-76
2021/09/20 07:06:09;;;;;;;9.20;2.10;;;12.10;86.50;;;;;;5036411;28;20514;-74
2021/09/20 07:08:35;;;;;;;8.75;1.92;;;12.20;86.70;;;;;;5030185;28;20044;-75
2021/09/20 07:11:01;;;;;;;7.63;1.90;;;12.20;86.20;;;;;;5035627;28;20393;-75
2021/09/20 07:13:27;;;;;;;11.73;2.47;;;12.20;86.80;;;;;;5036935;28;20030;-76
2021/09/20 07:15:53;;;;;;;18.30;8.25;;;12.30;87.60;;;;;;5036711;28;20492;-77
2021/09/20 07:18:19;;;;;;;11.68;4.80;;;12.30;88.10;;;;;;5034569;28;20408;-77
2021/09/20 07:20:46;;;;;;;12.32;2.30;;;12.30;87.70;;;;;;5035519;28;20032;-77
2021/09/20 07:23:13;;;;;;;7.68;2.38;;;12.40;87.90;;;;;;5037255;28;20056;-77
2021/09/20 07:25:39;;;;;;;7.53;2.13;;;12.40;87.90;;;;;;5036811;28;20030;-78
2021/09/20 07:28:06;;;;;;;9.70;2.15;;;12.40;87.50;;;;;;5035398;28;20087;-77
2021/09/20 07:30:32;;;;;;;7.05;2.20;;;12.50;87.60;;;;;;5035726;28;20105;-75
2021/09/20 07:32:58;;;;;;;10.32;2.00;;;12.50;88.10;;;;;;5036250;28;20029;-75
2021/09/20 07:35:24;;;;;;;14.40;2.15;;;12.60;88.70;;;;;;5036166;28;20057;-75
2021/09/20 07:37:53;;;;;;;6.63;2.10;;;12.70;89.20;;;;;;5039927;28;20025;-76
2021/09/20 07:40:22;;;;;;;10.35;2.25;;;12.70;88.80;;;;;;5040644;28;20029;-75
2021/09/20 07:42:51;;;;;;;8.73;2.10;;;12.80;88.70;;;;;;5041126;28;20026;-76
2021/09/20 07:45:17;;;;;;;10.15;2.03;;;12.80;88.70;;;;;;5041018;28;20025;-76
2021/09/20 07:47:44;;;;;;;11.52;2.13;;;12.90;89.40;;;;;;5040410;28;20033;-75
2021/09/20 07:50:13;;;;;;;8.82;1.90;;;13.00;89.40;;;;;;5041235;28;20053;-75
2021/09/20 07:52:39;;;;;;;9.70;1.92;;;13.00;88.50;;;;;;5036646;28;20021;-75
2021/09/20 07:55:06;;;;;;;7.70;2.08;;;13.00;88.00;;;;;;5040196;28;20030;-75
2021/09/20 07:57:33;;;;;;;12.40;2.22;;;13.10;88.00;;;;;;5040037;28;20105;-75
2021/09/20 07:59:59;;;;;;;7.75;2.05;;;13.20;88.30;;;;;;5040213;28;20032;-75
2021/09/20 08:02:25;;;;;;;15.10;4.63;;;13.30;88.40;;;;;;5039749;28;20088;-75
2021/09/20 08:04:51;;;;;;;15.35;4.10;;;13.40;87.90;;;;;;5040618;28;20506;-75
2021/09/20 08:07:18;;;;;;;11.88;2.33;;;13.60;88.20;;;;;;5039649;28;20033;-75
2021/09/20 08:09:43;;;;;;;10.02;2.38;;;13.80;88.70;;;;;;5040188;28;20018;-73
2021/09/20 08:12:09;;;;;;;19.88;7.60;;;14.10;88.00;;;;;;5040402;28;20546;-74
2021/09/20 08:14:35;;;;;;;13.27;3.53;;;14.60;87.40;;;;;;5040498;28;20104;-75
2021/09/20 08:17:01;;;;;;;5.65;1.77;;;15.00;87.20;;;;;;5040100;28;20028;-73
2021/09/20 08:19:27;;;;;;;10.50;1.85;;;15.50;86.70;;;;;;5040610;28;20022;-73
2021/09/20 08:21:53;;;;;;;9.55;1.70;;;16.30;86.60;;;;;;5039629;28;20026;-74
2021/09/20 08:24:20;;;;;;;7.80;1.70;;;17.10;85.10;;;;;;5039743;28;20044;-74
2021/09/20 08:26:46;;;;;;;7.20;1.73;;;17.90;83.40;;;;;;5040009;28;20017;-75
2021/09/20 08:29:12;;;;;;;7.43;2.35;;;18.70;81.70;;;;;;5040560;28;20159;-74
2021/09/20 08:31:38;;;;;;;9.27;2.35;;;19.40;80.60;;;;;;5040235;28;20373;-74
2021/09/20 08:34:04;;;;;;;9.75;2.30;;;20.00;77.20;;;;;;5039280;28;20048;-74
2021/09/20 08:36:30;;;;;;;7.32;2.38;;;20.40;74.60;;;;;;5039733;28;20085;-75
2021/09/20 08:38:56;;;;;;;7.20;2.40;;;20.80;75.10;;;;;;5040170;28;20064;-74
2021/09/20 08:41:22;;;;;;;9.88;2.63;;;21.50;73.20;;;;;;5039571;28;20600;-75
2021/09/20 08:43:48;;;;;;;9.23;2.42;;;22.00;72.50;;;;;;5038448;28;20140;-74
2021/09/20 08:46:14;;;;;;;9.93;2.58;;;22.10;70.40;;;;;;5039197;28;20061;-75
2021/09/20 08:48:42;;;;;;;10.57;2.50;;;22.00;71.00;;;;;;5038637;28;20087;-75
2021/09/20 08:51:09;;;;;;;8.95;2.28;;;22.50;69.10;;;;;;5039213;28;20026;-75
2021/09/20 08:53:35;;;;;;;7.72;2.20;;;22.90;70.00;;;;;;5039087;28;20026;-74
2021/09/20 08:56:02;;;;;;;8.07;1.92;;;23.50;70.20;;;;;;5039093;28;20017;-75
2021/09/20 08:58:28;;;;;;;6.95;1.88;;;23.90;67.30;;;;;;5039177;28;20046;-75
2021/09/20 09:00:54;;;;;;;6.32;2.00;;;23.90;67.50;;;;;;5039181;28;20064;-75
2021/09/20 09:03:21;;;;;;;8.90;2.00;;;24.20;67.80;;;;;;5039337;28;20034;-76
2021/09/20 09:05:48;;;;;;;7.50;1.90;;;24.60;66.50;;;;;;5039107;28;20097;-76
2021/09/20 09:08:17;;;;;;;9.10;1.88;;;24.90;64.20;;;;;;5037898;28;20032;-76
2021/09/20 09:10:58;;;;;;;7.03;1.92;;;24.90;62.60;;;;;;5038782;28;20017;-75
2021/09/20 09:13:39;;;;;;;7.32;1.80;;;24.60;63.80;;;;;;5037445;28;20030;-76
2021/09/20 09:16:21;;;;;;;8.40;1.92;;;24.60;64.10;;;;;;5039714;28;20022;-75
2021/09/20 09:19:01;;;;;;;6.70;1.83;;;24.80;62.60;;;;;;5037975;28;20078;-76
2021/09/20 09:21:29;;;;;;;8.30;2.10;;;24.80;61.20;;;;;;5039089;28;20063;-76
2021/09/20 09:24:06;;;;;;;5.35;1.58;;;24.90;62.00;;;;;;5038927;28;20036;-75
2021/09/20 09:26:32;;;;;;;6.82;1.85;;;25.40;60.20;;;;;;5038318;28;20383;-75
2021/09/20 09:29:14;;;;;;;7.72;1.70;;;25.80;61.40;;;;;;5039187;28;20473;-76
2021/09/20 09:31:51;;;;;;;8.75;2.10;;;26.20;62.00;;;;;;5037535;28;20029;-75
2021/09/20 09:34:26;;;;;;;10.65;2.00;;;26.50;59.90;;;;;;5038896;28;20053;-75
2021/09/20 09:37:05;;;;;;;11.48;2.15;;;26.40;59.90;;;;;;5038877;28;20101;-75
2021/09/20 09:39:31;;;;;;;8.05;1.95;;;26.40;59.10;;;;;;5038566;28;20108;-76
2021/09/20 09:41:57;;;;;;;8.18;1.67;;;26.30;59.10;;;;;;5037865;28;20049;-75
2021/09/20 09:44:33;;;;;;;7.22;1.80;;;26.40;57.80;;;;;;5038538;28;20026;-76
2021/09/20 09:47:00;;;;;;;7.78;1.83;;;26.50;56.90;;;;;;5038360;28;20028;-75
2021/09/20 09:49:27;;;;;;;7.47;1.60;;;26.70;56.60;;;;;;5038674;28;20068;-75
2021/09/20 09:52:12;;;;;;;7.00;1.52;;;26.80;58.40;;;;;;5038933;28;20024;-76
2021/09/20 09:54:41;;;;;;;7.82;1.50;;;27.20;57.50;;;;;;5038676;28;20029;-76
2021/09/20 09:57:23;;;;;;;8.27;1.80;;;27.30;55.00;;;;;;5038190;28;20061;-76
2021/09/20 09:59:57;;;;;;;7.10;1.70;;;27.10;54.90;;;;;;5037633;28;20452;-75
2021/09/20 10:02:28;;;;;;;6.30;1.48;;;27.00;54.70;;;;;;5038441;28;20029;-76
2021/09/20 10:05:09;;;;;;;3.95;1.13;;;27.10;55.60;;;;;;5038796;28;20028;-75
2021/09/20 10:07:39;;;;;;;8.47;1.70;;;27.20;55.30;;;;;;5037987;28;20487;-76
2021/09/20 10:10:10;;;;;;;7.47;1.40;;;27.20;53.70;;;;;;5038280;28;20018;-75
2021/09/20 10:12:37;;;;;;;7.57;1.80;;;27.00;52.00;;;;;;5038202;28;20116;-75
2021/09/20 10:15:05;;;;;;;7.15;1.75;;;26.70;52.20;;;;;;5036754;28;20029;-75
2021/09/20 10:17:31;;;;;;;5.28;1.40;;;26.40;52.10;;;;;;5038098;28;20022;-75
2021/09/20 10:19:58;;;;;;;8.20;1.52;;;26.00;52.90;;;;;;5038020;28;20036;-75
2021/09/20 10:22:26;;;;;;;7.05;1.52;;;25.80;54.00;;;;;;5038142;28;20117;-75
2021/09/20 10:24:55;;;;;;;5.18;1.48;;;25.60;53.30;;;;;;5037826;28;20040;-75
2021/09/20 10:27:24;;;;;;;8.27;1.70;;;25.30;53.60;;;;;;5025153;28;20029;-75
2021/09/20 10:30:00;;;;;;;7.18;1.48;;;25.10;53.80;;;;;;5036985;28;20021;-75
2021/09/20 10:32:27;;;;;;;5.82;1.25;;;24.90;54.30;;;;;;5037138;28;20029;-75
2021/09/20 10:35:25;;;;;;;4.63;1.35;;;24.80;54.80;;;;;;5037497;28;20060;-74
2021/09/20 10:37:54;;;;;;;5.63;1.35;;;24.80;54.60;;;;;;5038060;28;20372;-75
2021/09/20 10:40:21;;;;;;;6.13;1.33;;;24.70;55.10;;;;;;5037935;28;20476;-75
2021/09/20 10:42:57;;;;;;;5.03;1.50;;;24.60;54.00;;;;;;5037703;28;20021;-74
2021/09/20 10:45:49;;;;;;;5.32;1.25;;;24.80;54.40;;;;;;5037727;28;20025;-75
2021/09/20 10:48:26;;;;;;;6.63;1.63;;;24.90;53.50;;;;;;5037225;28;20480;-75
2021/09/20 10:51:01;;;;;;;5.18;0.90;;;25.00;53.60;;;;;;5037767;28;20036;-75
2021/09/20 10:53:32;;;;;;;6.35;1.60;;;25.00;53.60;;;;;;5036450;28;20092;-76
2021/09/20 10:56:06;;;;;;;5.40;1.33;;;25.20;54.00;;;;;;5036179;28;20072;-75
2021/09/20 10:58:55;;;;;;;8.13;1.30;;;25.20;53.90;;;;;;5036681;28;20052;-77
2021/09/20 11:01:24;;;;;;;5.30;1.50;;;25.30;53.90;;;;;;5037852;28;20376;-74
2021/09/20 11:04:13;;;;;;;5.70;1.33;;;25.20;53.30;;;;;;5037326;28;20025;-73
2021/09/20 11:06:40;;;;;;;8.43;1.85;;;25.10;53.00;;;;;;5036939;28;20037;-75
2021/09/20 11:09:06;;;;;;;5.05;1.20;;;25.00;54.10;;;;;;5037223;28;20022;-75
2021/09/20 11:11:43;;;;;;;6.00;1.42;;;24.80;53.80;;;;;;5037188;28;20028;-75
2021/09/20 11:14:20;;;;;;;7.15;1.70;;;24.60;54.00;;;;;;5036024;28;20052;-74
2021/09/20 11:16:55;;;;;;;4.65;1.25;;;24.50;54.00;;;;;;5037093;28;20025;-74
2021/09/20 11:19:33;;;;;;;5.28;1.17;;;24.40;54.50;;;;;;5037611;28;20087;-75
2021/09/20 11:22:12;;;;;;;8.68;2.08;;;24.30;54.80;;;;;;5037008;28;20030;-76
2021/09/20 11:24:44;;;;;;;5.63;1.58;;;24.20;53.90;;;;;;5036807;28;20033;-76
2021/09/20 11:27:23;;;;;;;7.13;1.35;;;24.20;55.20;;;;;;5035557;28;20029;-76
2021/09/20 11:29:51;;;;;;;6.03;1.52;;;24.10;54.80;;;;;;5036675;28;20021;-78
2021/09/20 11:32:17;;;;;;;9.82;5.55;;;24.10;54.60;;;;;;5036664;28;20395;-79
2021/09/20 11:34:52;;;;;;;11.18;3.72;;;24.10;54.30;;;;;;5035442;28;20053;-79
2021/09/20 11:37:20;;;;;;;7.85;1.85;;;24.10;55.30;;;;;;5035969;28;20040;-81
2021/09/20 11:39:47;;;;;;;4.88;1.23;;;24.30;55.20;;;;;;5035815;28;20040;-79
2021/09/20 11:42:15;;;;;;;8.13;1.85;;;24.60;55.30;;;;;;5035661;28;20136;-80
2021/09/20 11:44:57;;;;;;;5.60;1.25;;;24.90;56.70;;;;;;5035370;28;20036;-79
2021/09/20 11:47:26;;;;;;;5.97;1.20;;;25.40;54.80;;;;;;5036788;28;20030;-80
2021/09/20 11:50:03;;;;;;;4.07;1.35;;;25.90;55.30;;;;;;5036666;28;20026;-81
2021/09/20 11:52:36;;;;;;;5.43;1.42;;;26.50;55.20;;;;;;5035311;28;20021;-80
2021/09/20 11:55:04;;;;;;;5.85;1.25;;;26.80;52.70;;;;;;5037130;28;20026;-79
2021/09/20 11:57:35;;;;;;;5.93;1.67;;;27.10;51.60;;;;;;5036646;28;20081;-78
2021/09/20 12:00:06;;;;;;;5.70;1.50;;;27.00;52.40;;;;;;5036603;28;20104;-79
2021/09/20 12:02:42;;;;;;;4.75;1.10;;;26.90;52.20;;;;;;5034963;28;20050;-79
2021/09/20 12:05:12;;;;;;;7.97;1.40;;;26.70;50.90;;;;;;5036786;28;20028;-79
2021/09/20 12:07:45;;;;;;;6.32;1.42;;;26.60;50.80;;;;;;5036537;28;20029;-78
2021/09/20 12:10:12;;;;;;;6.10;1.30;;;26.40;51.40;;;;;;5036313;28;20033;-78
2021/09/20 12:12:38;;;;;;;7.45;1.30;;;26.40;51.10;;;;;;5036364;28;20507;-77
2021/09/20 12:15:13;;;;;;;5.88;1.33;;;26.30;51.30;;;;;;5036365;28;20634;-77
2021/09/20 12:17:57;;;;;;;7.53;1.50;;;26.20;51.30;;;;;;5036717;28;20037;-77
2021/09/20 12:20:32;;;;;;;4.60;1.15;;;26.10;51.00;;;;;;5036516;28;20520;-77
2021/09/20 12:23:00;;;;;;;7.78;1.33;;;26.10;51.70;;;;;;5035104;28;20053;-78
2021/09/20 12:25:28;;;;;;;8.48;1.38;;;26.00;51.90;;;;;;5039856;28;20396;-77
2021/09/20 12:27:56;;;;;;;6.55;1.55;;;25.90;50.60;;;;;;5040383;28;20029;-77
2021/09/20 12:30:25;;;;;;;6.65;1.63;;;25.80;51.30;;;;;;5039923;28;20425;-77
2021/09/20 12:33:12;;;;;;;8.57;1.30;;;25.70;51.20;;;;;;5038723;28;20026;-77
2021/09/20 12:35:39;;;;;;;4.78;1.30;;;25.70;52.30;;;;;;5028740;28;20045;-78
2021/09/20 12:38:27;;;;;;;6.50;1.52;;;25.80;51.60;;;;;;5038790;28;20059;-77
2021/09/20 12:40:56;;;;;;;5.35;1.27;;;25.70;51.50;;;;;;5039062;28;20029;-77
2021/09/20 12:43:31;;;;;;;6.95;1.30;;;25.70;51.50;;;;;;5038972;28;20025;-77
2021/09/20 12:46:19;;;;;;;5.35;1.08;;;25.60;50.00;;;;;;5039894;28;20036;-76
2021/09/20 12:48:51;;;;;;;6.80;1.40;;;25.50;50.60;;;;;;5039611;28;20080;-77
2021/09/20 12:51:17;;;;;;;6.15;1.13;;;25.50;50.70;;;;;;5039495;28;20129;-77